Time;durP1;ratioP1;P1;durP2;ratioP2;P2;SDS_P1;SDS_P2;PMS_P1;PMS_P2;Temp;Humidity;BMP_temperature;BMP_pressure;BME280_temperature;BME280_humidity;BME280_pressure;Samples;Min_cycle;Max_cycle;Signal;HPM_P1;HPM_P2
2023/08/31 00:02:19;;;;;;;1.90;1.52;;;13.60;99.90;;;;;;5054233;28;20152;-42
2023/08/31 00:04:52;;;;;;;1.90;1.33;;;13.50;99.90;;;;;;5047462;28;20404;-42
2023/08/31 00:07:19;;;;;;;3.20;1.45;;;13.60;99.90;;;;;;5056504;28;20032;-43
2023/08/31 00:09:50;;;;;;;1.55;1.40;;;13.50;99.90;;;;;;5064873;28;20582;-44
2023/08/31 00:12:19;;;;;;;3.22;1.60;;;13.50;99.90;;;;;;5053710;28;20016;-43
2023/08/31 00:14:44;;;;;;;1.38;1.27;;;13.50;99.90;;;;;;5064585;28;20151;-43
2023/08/31 00:17:10;;;;;;;1.50;1.35;;;13.50;99.90;;;;;;5054517;28;20107;-43
2023/08/31 00:19:35;;;;;;;1.60;1.45;;;13.50;99.90;;;;;;5065330;28;20076;-43
2023/08/31 00:22:01;;;;;;;1.67;1.48;;;13.40;99.90;;;;;;5052683;28;20029;-44
2023/08/31 00:24:31;;;;;;;2.63;1.50;;;13.40;99.90;;;;;;5066136;28;20037;-43
2023/08/31 00:27:06;;;;;;;1.95;1.50;;;13.40;99.90;;;;;;5052338;28;20036;-43
2023/08/31 00:29:32;;;;;;;1.60;1.50;;;13.50;99.90;;;;;;5066149;28;20392;-43
2023/08/31 00:31:57;;;;;;;2.55;1.50;;;13.50;99.90;;;;;;5053141;28;20032;-42
2023/08/31 00:34:23;;;;;;;1.50;1.38;;;13.50;99.90;;;;;;5057159;28;20108;-42
2023/08/31 00:36:48;;;;;;;1.92;1.35;;;13.50;99.90;;;;;;5055887;28;20020;-43
2023/08/31 00:39:15;;;;;;;1.40;1.30;;;13.40;99.90;;;;;;5048590;28;20160;-43
2023/08/31 00:41:40;;;;;;;1.20;1.10;;;13.40;99.90;;;;;;5052694;28;20111;-43
2023/08/31 00:44:07;;;;;;;2.17;1.40;;;13.40;99.90;;;;;;5051378;28;20568;-43
2023/08/31 00:46:34;;;;;;;1.45;1.35;;;13.30;99.90;;;;;;5050112;28;20048;-42
2023/08/31 00:49:00;;;;;;;1.50;1.40;;;13.30;99.90;;;;;;5052695;28;20469;-44
2023/08/31 00:51:26;;;;;;;1.77;1.30;;;13.30;99.90;;;;;;5048079;28;20075;-45
2023/08/31 00:53:54;;;;;;;2.22;1.40;;;13.30;99.90;;;;;;5055173;28;20461;-44
2023/08/31 00:56:20;;;;;;;1.63;1.33;;;13.30;99.90;;;;;;5046350;28;20024;-42
2023/08/31 00:58:46;;;;;;;1.52;1.42;;;13.30;99.90;;;;;;5055233;28;20192;-44
2023/08/31 01:01:12;;;;;;;1.33;1.23;;;13.30;99.90;;;;;;5044212;28;20651;-44
2023/08/31 01:03:53;;;;;;;1.50;1.40;;;13.30;99.90;;;;;;5056503;28;20027;-43
2023/08/31 01:06:47;;;;;;;1.60;1.50;;;13.30;99.90;;;;;;5045564;28;20073;-43
2023/08/31 01:09:27;;;;;;;2.13;1.52;;;13.20;99.90;;;;;;5044384;28;20025;-43
2023/08/31 01:12:05;;;;;;;1.30;1.20;;;13.20;99.90;;;;;;5047299;28;20465;-43
2023/08/31 01:14:36;;;;;;;1.60;1.50;;;13.20;99.90;;;;;;5054681;28;20025;-42
2023/08/31 01:17:06;;;;;;;2.25;1.60;;;13.10;99.90;;;;;;5063443;28;20036;-43
2023/08/31 01:19:51;;;;;;;3.55;2.20;;;13.10;99.90;;;;;;5054233;28;20021;-44
2023/08/31 01:22:35;;;;;;;2.53;2.10;;;13.10;99.90;;;;;;5062474;28;20060;-44
2023/08/31 01:25:04;;;;;;;2.13;1.92;;;13.10;99.90;;;;;;5055100;28;20032;-44
2023/08/31 01:27:30;;;;;;;3.70;2.20;;;13.10;99.90;;;;;;5063541;28;20064;-44
2023/08/31 01:29:56;;;;;;;2.60;2.40;;;13.10;99.90;;;;;;5052859;28;20117;-44
2023/08/31 01:32:22;;;;;;;2.60;2.40;;;13.10;99.90;;;;;;5062332;28;20544;-43
2023/08/31 01:34:51;;;;;;;3.17;2.70;;;13.10;99.90;;;;;;5058023;28;20700;-43
2023/08/31 01:37:29;;;;;;;2.92;2.72;;;13.10;99.90;;;;;;5063232;28;20017;-43
2023/08/31 01:40:06;;;;;;;3.70;3.13;;;13.10;99.90;;;;;;5044874;28;20021;-43
2023/08/31 01:42:32;;;;;;;4.28;3.38;;;13.20;99.90;;;;;;5044832;28;20025;-43
2023/08/31 01:45:00;;;;;;;3.63;3.28;;;13.20;99.90;;;;;;5052568;28;20345;-43
2023/08/31 01:47:26;;;;;;;3.45;2.88;;;13.30;99.90;;;;;;5064862;28;20039;-43
2023/08/31 01:49:52;;;;;;;3.53;3.00;;;13.30;99.90;;;;;;5051810;28;20111;-43
2023/08/31 01:52:18;;;;;;;3.38;3.08;;;13.30;99.90;;;;;;5063491;28;20076;-43
2023/08/31 01:54:44;;;;;;;3.78;3.00;;;13.30;99.90;;;;;;5051973;28;20091;-43
2023/08/31 01:57:13;;;;;;;3.60;3.30;;;13.40;99.90;;;;;;5063516;28;20024;-43
2023/08/31 01:59:38;;;;;;;3.55;3.22;;;13.30;99.90;;;;;;5053647;28;20080;-43
2023/08/31 02:02:04;;;;;;;3.95;3.53;;;13.30;99.90;;;;;;5061531;28;20086;-44
2023/08/31 02:04:29;;;;;;;4.03;3.63;;;13.40;99.90;;;;;;5056366;28;20551;-43
2023/08/31 02:06:55;;;;;;;3.97;3.67;;;13.30;99.90;;;;;;5059087;28;20036;-42
2023/08/31 02:09:27;;;;;;;5.22;3.90;;;13.40;99.90;;;;;;5058056;28;20025;-43
2023/08/31 02:11:52;;;;;;;5.38;4.10;;;13.40;99.90;;;;;;5056227;28;20029;-43
2023/08/31 02:14:18;;;;;;;4.15;3.67;;;13.40;99.90;;;;;;5059949;28;20028;-42
2023/08/31 02:16:44;;;;;;;6.00;4.05;;;13.40;99.90;;;;;;5055150;28;20078;-43
2023/08/31 02:19:09;;;;;;;4.90;4.47;;;13.50;99.90;;;;;;5061769;28;20050;-43
2023/08/31 02:21:38;;;;;;;4.30;3.90;;;13.40;99.90;;;;;;5052483;28;20028;-45
2023/08/31 02:24:04;;;;;;;5.22;4.38;;;13.50;99.90;;;;;;5062288;28;20020;-43
2023/08/31 02:26:30;;;;;;;4.50;3.90;;;13.40;99.90;;;;;;5052053;28;20043;-43
2023/08/31 02:28:55;;;;;;;4.32;3.92;;;13.40;99.90;;;;;;5064147;28;20044;-43
2023/08/31 02:31:21;;;;;;;8.02;4.68;;;13.50;99.90;;;;;;5050699;28;20035;-43
2023/08/31 02:33:47;;;;;;;6.50;4.88;;;13.50;99.90;;;;;;5062459;28;20023;-42
2023/08/31 02:36:12;;;;;;;5.40;4.63;;;13.50;99.90;;;;;;5055649;28;20024;-42
2023/08/31 02:38:38;;;;;;;5.68;4.22;;;13.50;99.90;;;;;;5044303;28;20614;-42
2023/08/31 02:41:03;;;;;;;5.30;4.80;;;13.50;99.90;;;;;;5052906;28;20021;-43
2023/08/31 02:43:30;;;;;;;4.75;4.10;;;13.50;99.90;;;;;;5045997;28;20119;-43
2023/08/31 02:46:02;;;;;;;5.13;4.38;;;13.50;99.90;;;;;;5051533;28;20384;-43
2023/08/31 02:48:29;;;;;;;;;;;13.50;99.90;;;;;;5046705;28;20037;-42
2023/08/31 02:50:56;;;;;;;6.35;4.72;;;13.60;99.90;;;;;;5050404;28;20007;-43
2023/08/31 02:53:25;;;;;;;5.95;4.75;;;13.50;99.90;;;;;;5048413;28;20583;-42
2023/08/31 02:55:53;;;;;;;4.40;4.03;;;13.50;99.90;;;;;;5048047;28;20020;-42
2023/08/31 02:58:22;;;;;;;5.13;4.60;;;13.50;99.90;;;;;;5051202;28;20036;-43
2023/08/31 03:00:53;;;;;;;5.20;4.70;;;13.50;99.90;;;;;;5045761;28;20029;-44
2023/08/31 03:03:25;;;;;;;6.90;5.13;;;13.60;99.90;;;;;;5052012;28;20029;-44
2023/08/31 03:05:55;;;;;;;6.25;5.47;;;13.60;99.90;;;;;;5045423;28;20021;-43
2023/08/31 03:08:20;;;;;;;7.35;5.78;;;13.60;99.90;;;;;;5052385;28;20035;-43
2023/08/31 03:10:46;;;;;;;5.03;4.53;;;13.60;99.90;;;;;;5044718;28;20135;-43
2023/08/31 03:13:14;;;;;;;6.22;5.63;;;13.60;99.90;;;;;;5054388;28;20040;-42
2023/08/31 03:15:40;;;;;;;5.43;4.93;;;13.70;99.90;;;;;;5044447;28;20039;-42
2023/08/31 03:18:05;;;;;;;5.82;5.22;;;13.60;99.90;;;;;;5054736;28;20025;-43
2023/08/31 03:20:31;;;;;;;5.57;5.07;;;13.70;99.90;;;;;;5043309;28;20472;-43
2023/08/31 03:22:57;;;;;;;6.07;5.57;;;13.70;99.90;;;;;;5059051;28;20051;-44
2023/08/31 03:25:22;;;;;;;6.22;5.63;;;13.70;99.90;;;;;;5047055;28;20626;-42
2023/08/31 03:27:48;;;;;;;6.20;5.60;;;13.70;99.90;;;;;;5059658;28;20446;-42
2023/08/31 03:30:13;;;;;;;7.85;5.95;;;13.70;99.90;;;;;;5046416;28;20053;-43
2023/08/31 03:32:39;;;;;;;7.97;6.30;;;13.80;99.90;;;;;;5056373;28;20044;-43
2023/08/31 03:35:05;;;;;;;8.50;5.93;;;13.80;99.90;;;;;;5060690;28;20048;-43
2023/08/31 03:37:31;;;;;;;6.97;6.28;;;13.80;99.90;;;;;;5059340;28;20020;-43
2023/08/31 03:39:56;;;;;;;6.72;6.03;;;13.90;99.90;;;;;;5061642;28;20028;-43
2023/08/31 03:42:22;;;;;;;7.03;5.75;;;13.90;99.90;;;;;;5062149;28;20113;-42
2023/08/31 03:44:47;;;;;;;6.10;5.60;;;13.80;99.90;;;;;;5057981;28;20089;-42
2023/08/31 03:47:16;;;;;;;7.07;6.38;;;13.80;99.90;;;;;;5064739;28;20036;-43
2023/08/31 03:49:41;;;;;;;7.45;6.32;;;13.80;99.90;;;;;;5055539;28;20024;-43
2023/08/31 03:52:07;;;;;;;6.82;6.18;;;13.70;99.90;;;;;;5064764;28;20036;-43
2023/08/31 03:54:33;;;;;;;6.45;5.93;;;13.70;99.90;;;;;;5055583;28;20021;-42
2023/08/31 03:56:58;;;;;;;7.13;6.43;;;13.70;99.90;;;;;;5065528;28;20540;-43
2023/08/31 03:59:24;;;;;;;7.65;6.60;;;13.70;99.90;;;;;;5053707;28;20044;-43
2023/08/31 04:01:49;;;;;;;9.70;6.70;;;13.70;99.90;;;;;;5066570;28;20021;-42
2023/08/31 04:04:17;;;;;;;6.80;5.82;;;13.70;99.90;;;;;;5052883;28;20033;-43
2023/08/31 04:06:43;;;;;;;6.97;6.28;;;13.70;99.90;;;;;;5066409;28;20119;-42
2023/08/31 04:09:09;;;;;;;6.47;5.78;;;13.70;99.90;;;;;;5054028;28;20128;-42
2023/08/31 04:11:34;;;;;;;7.28;6.15;;;13.70;99.90;;;;;;5065238;28;20043;-43
2023/08/31 04:14:01;;;;;;;7.25;6.53;;;13.70;99.90;;;;;;5056497;28;20491;-42
2023/08/31 04:16:27;;;;;;;7.22;6.47;;;13.70;99.90;;;;;;5063691;28;20032;-42
2023/08/31 04:18:57;;;;;;;6.93;6.20;;;13.70;99.90;;;;;;5059181;28;20829;-43
2023/08/31 04:21:23;;;;;;;6.78;5.88;;;13.70;99.90;;;;;;5061054;28;20032;-43
2023/08/31 04:23:49;;;;;;;6.50;5.78;;;13.70;99.90;;;;;;5061509;28;20021;-43
2023/08/31 04:26:16;;;;;;;6.35;5.63;;;13.70;99.90;;;;;;5056848;28;20100;-42
2023/08/31 04:28:42;;;;;;;6.55;5.20;;;13.70;99.90;;;;;;5063632;28;20028;-43
2023/08/31 04:31:08;;;;;;;6.38;5.75;;;13.70;99.90;;;;;;5055943;28;20020;-43
2023/08/31 04:33:39;;;;;;;6.30;5.43;;;13.70;99.90;;;;;;5063603;28;20013;-43
2023/08/31 04:36:05;;;;;;;6.30;5.10;;;13.70;99.90;;;;;;5064886;28;20056;-43
2023/08/31 04:38:31;;;;;;;6.22;4.95;;;13.70;99.90;;;;;;5061937;28;20104;-43
2023/08/31 04:41:01;;;;;;;5.63;5.03;;;13.60;99.90;;;;;;5056176;28;20021;-43
2023/08/31 04:43:27;;;;;;;5.72;4.93;;;13.70;99.90;;;;;;5045669;28;20029;-43
2023/08/31 04:45:55;;;;;;;5.18;4.70;;;13.60;99.90;;;;;;5057456;28;20032;-42
2023/08/31 04:48:21;;;;;;;6.05;4.90;;;13.60;99.90;;;;;;5045236;28;20040;-43
2023/08/31 04:50:47;;;;;;;5.22;4.72;;;13.60;99.90;;;;;;5057462;28;20561;-43
2023/08/31 04:53:13;;;;;;;6.82;4.30;;;13.70;99.90;;;;;;5044736;28;20120;-42
2023/08/31 04:55:39;;;;;;;4.82;4.32;;;13.70;99.90;;;;;;5056555;28;20463;-42
2023/08/31 04:58:04;;;;;;;4.82;4.32;;;13.70;99.90;;;;;;5046603;28;20384;-34
2023/08/31 05:00:30;;;;;;;6.13;4.30;;;13.70;99.90;;;;;;5053377;28;20446;-35
2023/08/31 05:02:56;;;;;;;5.80;4.30;;;13.70;99.90;;;;;;5048792;28;20128;-36
2023/08/31 05:05:22;;;;;;;6.15;3.85;;;13.70;99.90;;;;;;5051326;28;20016;-35
2023/08/31 05:07:50;;;;;;;6.00;4.40;;;13.70;99.90;;;;;;5051612;28;20037;-35
2023/08/31 05:10:16;;;;;;;4.70;4.10;;;13.80;99.90;;;;;;5048897;28;20025;-36
2023/08/31 05:12:42;;;;;;;6.43;4.18;;;13.80;99.90;;;;;;5054239;28;20087;-36
2023/08/31 05:15:11;;;;;;;5.00;4.15;;;13.80;99.90;;;;;;5045266;28;20021;-35
2023/08/31 05:17:37;;;;;;;4.88;4.07;;;13.90;99.90;;;;;;5045860;28;20052;-37
2023/08/31 05:20:07;;;;;;;5.57;4.80;;;13.90;99.90;;;;;;5046261;28;20045;-36
2023/08/31 05:22:34;;;;;;;8.25;5.30;;;13.90;99.90;;;;;;5055775;28;20083;-36
2023/08/31 05:25:00;;;;;;;7.18;5.55;;;13.90;99.90;;;;;;5046369;28;20029;-37
2023/08/31 05:27:26;;;;;;;5.75;5.15;;;13.90;99.90;;;;;;5056404;28;20400;-37
2023/08/31 05:29:52;;;;;;;5.93;4.88;;;13.90;99.90;;;;;;5044847;28;20487;-35
2023/08/31 05:32:17;;;;;;;5.43;4.93;;;14.00;99.90;;;;;;5057109;28;20163;-36
2023/08/31 05:34:43;;;;;;;5.30;4.78;;;14.00;99.90;;;;;;5051335;28;20020;-37
2023/08/31 05:37:08;;;;;;;6.63;6.03;;;14.00;99.90;;;;;;5050821;28;20048;-35
2023/08/31 05:39:34;;;;;;;8.15;5.38;;;14.00;99.90;;;;;;5064311;28;20480;-37
2023/08/31 05:42:03;;;;;;;6.15;5.20;;;14.00;99.90;;;;;;5052646;28;20881;-37
2023/08/31 05:44:29;;;;;;;6.07;5.47;;;14.00;99.90;;;;;;5060280;28;20036;-36
2023/08/31 05:46:54;;;;;;;5.53;4.80;;;14.00;99.90;;;;;;5056525;28;20036;-35
2023/08/31 05:49:20;;;;;;;5.22;4.75;;;14.00;99.90;;;;;;5057758;28;20024;-36
2023/08/31 05:51:45;;;;;;;5.75;5.25;;;14.00;99.90;;;;;;5058267;28;20028;-35
2023/08/31 05:54:13;;;;;;;5.25;4.75;;;14.00;99.90;;;;;;5050965;28;20104;-36
2023/08/31 05:56:40;;;;;;;5.57;5.07;;;14.00;99.90;;;;;;5047012;28;20056;-37
2023/08/31 05:59:09;;;;;;;5.55;5.05;;;14.10;99.90;;;;;;5053768;28;20036;-37
2023/08/31 06:01:38;;;;;;;5.43;4.93;;;14.10;99.90;;;;;;5063877;28;20016;-36
2023/08/31 06:04:10;;;;;;;6.75;6.10;;;14.10;99.90;;;;;;5052315;28;20044;-37
2023/08/31 06:06:36;;;;;;;5.57;4.97;;;14.10;99.90;;;;;;5063114;28;20032;-36
2023/08/31 06:09:02;;;;;;;5.70;4.88;;;14.20;99.90;;;;;;5052584;28;20763;-37
2023/08/31 06:11:27;;;;;;;5.50;5.00;;;14.20;99.90;;;;;;5063056;28;20024;-36
2023/08/31 06:13:53;;;;;;;5.60;5.03;;;14.20;99.90;;;;;;5051287;28;20019;-37
2023/08/31 06:16:19;;;;;;;5.43;4.95;;;14.10;99.90;;;;;;5063125;28;20619;-35
2023/08/31 06:18:44;;;;;;;5.40;4.68;;;14.10;99.90;;;;;;5049854;28;20123;-35
2023/08/31 06:21:10;;;;;;;5.78;5.03;;;14.20;99.90;;;;;;5063583;28;20028;-36
2023/08/31 06:23:39;;;;;;;5.03;4.57;;;14.10;99.90;;;;;;5052581;28;20029;-37
2023/08/31 06:26:05;;;;;;;6.70;4.57;;;14.10;99.90;;;;;;5062099;28;20219;-37
2023/08/31 06:28:31;;;;;;;5.68;5.18;;;14.20;99.90;;;;;;5054557;28;20028;-36
2023/08/31 06:30:56;;;;;;;7.97;5.85;;;14.10;99.90;;;;;;5061368;28;20025;-36
2023/08/31 06:33:22;;;;;;;5.90;5.38;;;14.20;99.90;;;;;;5056791;28;20796;-38
2023/08/31 06:35:57;;;;;;;5.60;5.05;;;14.20;99.90;;;;;;5059748;28;20027;-36
2023/08/31 06:38:22;;;;;;;5.25;4.75;;;14.30;99.90;;;;;;5057516;28;20067;-37
2023/08/31 06:40:48;;;;;;;5.53;5.03;;;14.40;99.90;;;;;;5056368;28;20074;-35
2023/08/31 06:43:17;;;;;;;6.05;5.32;;;14.70;99.90;;;;;;5059364;28;20085;-36
2023/08/31 06:45:42;;;;;;;6.00;5.40;;;14.80;99.90;;;;;;5054271;28;20028;-36
2023/08/31 06:48:08;;;;;;;5.18;4.68;;;14.80;99.90;;;;;;5061938;28;20078;-37
2023/08/31 06:50:35;;;;;;;4.70;4.20;;;14.80;99.90;;;;;;5053160;28;20840;-36
2023/08/31 06:53:01;;;;;;;5.75;4.50;;;14.70;99.90;;;;;;5061550;28;20052;-36
2023/08/31 06:55:26;;;;;;;4.97;4.47;;;14.70;99.90;;;;;;5053960;28;20722;-35
2023/08/31 06:57:52;;;;;;;4.93;4.35;;;14.70;99.90;;;;;;5066620;28;20025;-35
2023/08/31 07:00:18;;;;;;;4.95;4.45;;;14.70;99.90;;;;;;5054095;28;20062;-36
2023/08/31 07:02:43;;;;;;;4.70;4.30;;;14.70;99.90;;;;;;5068414;28;20020;-37
2023/08/31 07:05:10;;;;;;;4.60;4.20;;;14.70;99.90;;;;;;5054749;28;20090;-36
2023/08/31 07:07:36;;;;;;;5.22;4.72;;;14.70;99.90;;;;;;5067299;28;20094;-37
2023/08/31 07:10:02;;;;;;;5.65;4.78;;;14.80;99.90;;;;;;5057229;28;20025;-37
2023/08/31 07:12:27;;;;;;;6.43;4.97;;;14.80;99.90;;;;;;5066036;28;20082;-36
2023/08/31 07:14:53;;;;;;;5.35;4.65;;;14.80;99.90;;;;;;5055831;28;20364;-35
2023/08/31 07:17:19;;;;;;;5.95;5.03;;;14.90;99.90;;;;;;5052525;28;20025;-36
2023/08/31 07:19:45;;;;;;;5.63;5.13;;;14.80;99.90;;;;;;5049014;28;20385;-36
2023/08/31 07:22:10;;;;;;;6.22;5.40;;;14.80;99.90;;;;;;5059432;28;20674;-37
2023/08/31 07:24:36;;;;;;;5.28;4.78;;;14.90;99.90;;;;;;5066093;28;20023;-36
2023/08/31 07:27:03;;;;;;;5.82;5.20;;;14.90;99.90;;;;;;5057502;28;20115;-37
2023/08/31 07:29:28;;;;;;;5.68;5.18;;;14.90;99.90;;;;;;5066050;28;20028;-36
2023/08/31 07:31:54;;;;;;;5.78;4.65;;;14.90;99.90;;;;;;5057264;28;20017;-38
2023/08/31 07:34:23;;;;;;;6.28;4.57;;;14.90;99.90;;;;;;5063674;28;20532;-35
2023/08/31 07:36:48;;;;;;;5.30;4.60;;;14.80;99.90;;;;;;5057309;28;20021;-37
2023/08/31 07:39:14;;;;;;;4.40;3.90;;;14.90;99.90;;;;;;5047002;28;20032;-36
2023/08/31 07:41:39;;;;;;;6.43;4.68;;;14.90;99.90;;;;;;5059156;28;20029;-35
2023/08/31 07:44:06;;;;;;;4.97;4.57;;;15.00;99.90;;;;;;5046787;28;20084;-36
2023/08/31 07:46:31;;;;;;;5.10;4.60;;;15.10;99.90;;;;;;5059633;28;20416;-36
2023/08/31 07:48:57;;;;;;;4.38;3.97;;;15.20;99.90;;;;;;5045952;28;20051;-35
2023/08/31 07:51:24;;;;;;;4.95;4.47;;;15.20;99.90;;;;;;5056924;28;20105;-36
2023/08/31 07:53:49;;;;;;;4.82;4.28;;;15.30;99.90;;;;;;5048618;28;20032;-36
2023/08/31 07:56:18;;;;;;;6.97;4.38;;;15.20;99.90;;;;;;5052964;28;20037;-36
2023/08/31 07:58:44;;;;;;;4.72;4.15;;;15.30;99.90;;;;;;5051183;28;20033;-36
2023/08/31 08:01:12;;;;;;;4.78;4.10;;;15.30;99.90;;;;;;5051484;28;20020;-36
2023/08/31 08:03:38;;;;;;;4.40;4.00;;;15.30;99.90;;;;;;5053235;28;20159;-34
2023/08/31 08:06:03;;;;;;;4.35;3.95;;;15.30;99.90;;;;;;5049258;28;20036;-35
2023/08/31 08:08:29;;;;;;;4.40;3.97;;;15.30;99.90;;;;;;5054772;28;20043;-35
2023/08/31 08:10:55;;;;;;;4.55;4.00;;;15.30;99.90;;;;;;5047748;28;20021;-35
2023/08/31 08:13:21;;;;;;;5.00;4.13;;;15.30;99.90;;;;;;5055475;28;20542;-36
2023/08/31 08:15:47;;;;;;;4.68;4.15;;;15.30;99.90;;;;;;5044948;28;20028;-35
2023/08/31 08:18:15;;;;;;;4.30;3.67;;;15.30;99.90;;;;;;5056649;28;20029;-34
2023/08/31 08:20:41;;;;;;;4.65;4.03;;;15.30;99.90;;;;;;5047316;28;20025;-35
2023/08/31 08:23:06;;;;;;;4.18;3.78;;;15.40;99.90;;;;;;5057985;28;20079;-37
2023/08/31 08:25:39;;;;;;;4.18;3.78;;;15.40;99.90;;;;;;5046234;28;20036;-36
2023/08/31 08:28:07;;;;;;;4.13;3.72;;;15.50;99.90;;;;;;5057325;28;20335;-35
2023/08/31 08:30:33;;;;;;;5.15;4.65;;;15.60;99.90;;;;;;5046761;28;20017;-37
2023/08/31 08:33:02;;;;;;;4.80;4.05;;;15.60;99.90;;;;;;5056178;28;20051;-34
2023/08/31 08:35:28;;;;;;;4.85;3.80;;;15.70;99.90;;;;;;5057611;28;20033;-35
2023/08/31 08:37:53;;;;;;;6.15;3.80;;;15.80;99.90;;;;;;5055715;28;20465;-34
2023/08/31 08:40:19;;;;;;;4.43;4.13;;;16.00;99.90;;;;;;5063725;28;20392;-36
2023/08/31 08:42:50;;;;;;;3.92;3.55;;;16.10;99.90;;;;;;5059295;28;20638;-35
2023/08/31 08:45:20;;;;;;;4.88;4.15;;;16.20;99.90;;;;;;5060741;28;20100;-35
2023/08/31 08:47:46;;;;;;;4.20;3.78;;;16.30;99.90;;;;;;5062066;28;20704;-36
2023/08/31 08:50:13;;;;;;;5.47;4.50;;;16.40;99.90;;;;;;5051128;28;20136;-36
2023/08/31 08:52:40;;;;;;;5.32;3.80;;;16.40;99.90;;;;;;5060331;28;20082;-36
2023/08/31 08:55:06;;;;;;;4.07;3.78;;;16.50;99.90;;;;;;5058300;28;20028;-35
2023/08/31 08:57:31;;;;;;;5.00;4.13;;;16.50;99.90;;;;;;5053818;28;20025;-36
2023/08/31 08:59:58;;;;;;;6.93;3.70;;;16.50;99.90;;;;;;5053014;28;20068;-35
2023/08/31 09:02:24;;;;;;;6.22;4.13;;;16.60;99.90;;;;;;5059311;28;20028;-36
2023/08/31 09:04:54;;;;;;;4.60;4.00;;;16.60;99.90;;;;;;5058333;28;20078;-36
2023/08/31 09:07:21;;;;;;;4.85;3.33;;;16.70;99.90;;;;;;5044933;28;20560;-34
2023/08/31 09:09:54;;;;;;;3.35;3.05;;;16.70;99.90;;;;;;5062777;28;20799;-34
2023/08/31 09:12:23;;;;;;;3.85;3.25;;;16.70;99.90;;;;;;5058812;28;20033;-34
2023/08/31 09:15:04;;;;;;;5.50;3.20;;;16.70;99.90;;;;;;5053559;28;20133;-36
2023/08/31 09:17:47;;;;;;;3.60;2.83;;;16.60;99.90;;;;;;5057068;28;20028;-35
2023/08/31 09:20:13;;;;;;;3.25;2.85;;;16.60;99.90;;;;;;5052225;28;20119;-34
2023/08/31 09:22:43;;;;;;;3.70;3.28;;;16.60;99.90;;;;;;5049270;28;20848;-34
2023/08/31 09:25:29;;;;;;;4.50;3.22;;;16.70;99.90;;;;;;5057488;28;20024;-34
2023/08/31 09:27:56;;;;;;;4.70;2.75;;;16.70;99.90;;;;;;5053818;28;20040;-34
2023/08/31 09:30:21;;;;;;;3.30;2.47;;;16.80;99.90;;;;;;5050009;28;20159;-36
2023/08/31 09:32:52;;;;;;;2.72;2.47;;;16.90;99.90;;;;;;5053134;28;20140;-34
2023/08/31 09:35:18;;;;;;;3.08;2.60;;;16.90;99.90;;;;;;5051261;28;20037;-34
2023/08/31 09:37:56;;;;;;;3.47;2.05;;;16.90;99.90;;;;;;5050977;28;20044;-34
2023/08/31 09:40:24;;;;;;;3.92;2.72;;;17.00;99.90;;;;;;5050501;28;20078;-34
2023/08/31 09:42:53;;;;;;;4.72;2.80;;;17.00;99.90;;;;;;5059908;28;20040;-35
2023/08/31 09:45:27;;;;;;;3.30;2.33;;;17.00;99.90;;;;;;5058978;28;20582;-35
2023/08/31 09:47:57;;;;;;;2.97;2.38;;;17.00;99.90;;;;;;5048839;28;20086;-34
2023/08/31 10:00:57;;;;;;;1.98;1.63;;;17.10;99.90;;;;;;5118321;27;20439;-34
2023/08/31 10:03:24;;;;;;;2.40;1.92;;;17.30;99.90;;;;;;5102416;27;20803;-35
2023/08/31 10:05:50;;;;;;;2.60;1.90;;;17.30;99.90;;;;;;5110085;28;20499;-34
2023/08/31 10:08:17;;;;;;;3.83;1.92;;;17.30;99.90;;;;;;5103817;27;20015;-35
2023/08/31 10:10:42;;;;;;;3.65;1.88;;;17.30;99.90;;;;;;5101745;28;20101;-40
2023/08/31 10:13:08;;;;;;;4.05;1.50;;;17.30;99.90;;;;;;5101840;28;20105;-35
2023/08/31 10:15:36;;;;;;;1.75;1.63;;;17.30;99.90;;;;;;5102364;28;20488;-36
2023/08/31 10:18:05;;;;;;;2.60;1.50;;;17.40;99.90;;;;;;5099323;28;20457;-34
2023/08/31 10:20:33;;;;;;;2.00;1.80;;;17.40;99.90;;;;;;5100026;28;20035;-35
2023/08/31 10:22:59;;;;;;;1.98;1.73;;;17.50;99.90;;;;;;5099197;28;20431;-35
2023/08/31 10:25:26;;;;;;;2.53;1.77;;;17.50;99.90;;;;;;5098866;28;20095;-36
2023/08/31 10:27:52;;;;;;;1.60;1.38;;;17.40;99.90;;;;;;5099593;28;20466;-35
2023/08/31 10:30:27;;;;;;;2.45;1.67;;;17.40;99.90;;;;;;5100862;28;20070;-35
2023/08/31 10:33:08;;;;;;;4.55;2.05;;;17.50;99.90;;;;;;5101272;28;20424;-36
2023/08/31 10:35:56;;;;;;;2.13;1.63;;;17.60;99.90;;;;;;5101612;28;20020;-35
2023/08/31 10:38:26;;;;;;;1.90;1.58;;;17.70;99.90;;;;;;5089943;28;20024;-35
2023/08/31 10:41:00;;;;;;;2.70;1.70;;;17.60;99.90;;;;;;5101592;28;20020;-35
2023/08/31 10:43:26;;;;;;;2.85;1.42;;;17.70;99.90;;;;;;5102215;28;20176;-35
2023/08/31 10:45:52;;;;;;;1.35;1.10;;;17.80;99.90;;;;;;5101205;28;20124;-36
2023/08/31 10:48:18;;;;;;;2.03;1.20;;;17.80;99.90;;;;;;5100572;28;20052;-35
2023/08/31 10:50:48;;;;;;;1.45;1.10;;;17.90;99.90;;;;;;5101909;28;20027;-35
2023/08/31 10:53:14;;;;;;;2.78;0.95;;;17.90;99.90;;;;;;5098813;28;20485;-34
2023/08/31 10:55:55;;;;;;;1.90;1.25;;;17.90;99.90;;;;;;5100785;28;20058;-35
2023/08/31 10:58:21;;;;;;;1.50;1.00;;;17.90;99.90;;;;;;5100312;28;20433;-37
2023/08/31 11:00:52;;;;;;;1.92;0.93;;;18.00;99.90;;;;;;5092991;28;20044;-35
2023/08/31 11:03:18;;;;;;;1.40;1.00;;;18.00;99.90;;;;;;5086713;28;20097;-38
2023/08/31 11:05:53;;;;;;;1.90;1.15;;;18.00;99.90;;;;;;5086516;28;20028;-36
2023/08/31 11:08:26;;;;;;;1.98;1.20;;;18.10;99.90;;;;;;5086705;28;20031;-35
2023/08/31 11:11:01;;;;;;;3.33;1.00;;;18.20;99.90;;;;;;5087801;28;20106;-35
2023/08/31 11:13:26;;;;;;;1.65;1.15;;;18.20;99.90;;;;;;5085831;28;20550;-35
2023/08/31 11:15:52;;;;;;;1.40;0.90;;;18.30;99.90;;;;;;5102092;28;20032;-36
2023/08/31 11:18:20;;;;;;;1.90;0.90;;;18.40;99.90;;;;;;5089698;28;20100;-35
2023/08/31 11:20:47;;;;;;;1.95;0.98;;;18.50;99.90;;;;;;5082731;28;20391;-35
2023/08/31 11:23:13;;;;;;;1.27;0.90;;;18.60;99.90;;;;;;5085004;28;20470;-36
2023/08/31 11:25:39;;;;;;;1.15;0.90;;;18.80;99.90;;;;;;5075878;28;20039;-35
2023/08/31 11:28:09;;;;;;;2.25;0.90;;;18.80;99.90;;;;;;5088211;28;20023;-36
2023/08/31 11:30:36;;;;;;;1.10;0.88;;;18.90;99.90;;;;;;5073105;28;20048;-36
2023/08/31 11:33:11;;;;;;;1.55;0.70;;;19.00;99.90;;;;;;5074121;28;20616;-35
2023/08/31 11:35:43;;;;;;;1.77;0.80;;;19.00;99.90;;;;;;5090602;28;20028;-36
2023/08/31 11:38:09;;;;;;;0.82;0.50;;;19.10;99.90;;;;;;5085958;28;20502;-36
2023/08/31 11:40:36;;;;;;;1.05;0.65;;;19.10;99.90;;;;;;5087837;28;20028;-35
2023/08/31 11:43:04;;;;;;;1.10;0.70;;;19.10;99.90;;;;;;5096650;28;20425;-35
2023/08/31 11:45:34;;;;;;;0.80;0.60;;;19.20;99.90;;;;;;5087173;28;20054;-36
2023/08/31 11:48:00;;;;;;;0.73;0.70;;;19.10;99.90;;;;;;5086041;28;20104;-34
2023/08/31 11:50:27;;;;;;;1.63;0.70;;;19.20;99.90;;;;;;5086518;28;20056;-36
2023/08/31 11:52:56;;;;;;;0.82;0.63;;;19.20;99.90;;;;;;5090181;28;20075;-35
2023/08/31 11:55:22;;;;;;;1.20;0.60;;;19.30;99.90;;;;;;5085598;28;20515;-36
2023/08/31 11:57:54;;;;;;;1.38;0.70;;;19.30;99.90;;;;;;5086746;28;20025;-34
2023/08/31 12:00:23;;;;;;;1.55;0.70;;;19.30;99.90;;;;;;5085010;28;20566;-36
2023/08/31 12:03:08;;;;;;;1.67;0.70;;;19.30;99.90;;;;;;5096337;28;20810;-35
2023/08/31 12:05:47;;;;;;;2.42;0.75;;;19.30;99.90;;;;;;5085299;28;20020;-37
2023/08/31 12:08:16;;;;;;;2.00;0.80;;;19.30;99.90;;;;;;5083300;28;20028;-35
2023/08/31 12:10:42;;;;;;;0.82;0.70;;;19.40;99.90;;;;;;5080590;28;20039;-36
2023/08/31 12:13:12;;;;;;;1.27;0.70;;;19.50;99.90;;;;;;5080475;28;20308;-35
2023/08/31 12:15:38;;;;;;;2.10;0.60;;;19.60;99.90;;;;;;5084223;28;20073;-35
2023/08/31 12:18:11;;;;;;;1.20;0.60;;;19.60;99.90;;;;;;5075079;28;20035;-33
2023/08/31 12:20:47;;;;;;;1.40;0.65;;;19.70;99.90;;;;;;5087081;28;20069;-35
2023/08/31 12:23:15;;;;;;;0.73;0.55;;;19.70;99.90;;;;;;5101361;28;20082;-35
2023/08/31 12:25:54;;;;;;;0.95;0.55;;;19.80;99.90;;;;;;5093151;28;20028;-36
2023/08/31 12:28:22;;;;;;;2.45;0.88;;;19.80;99.90;;;;;;5065468;28;20039;-36
2023/08/31 12:30:53;;;;;;;2.25;0.88;;;19.80;99.90;;;;;;5080023;28;20036;-35
2023/08/31 12:33:20;;;;;;;0.77;0.68;;;19.90;98.90;;;;;;5085855;28;20028;-36
2023/08/31 12:35:46;;;;;;;1.40;0.60;;;19.80;98.70;;;;;;5085410;28;20059;-37
2023/08/31 12:38:12;;;;;;;1.08;0.65;;;19.80;98.50;;;;;;5084221;28;20364;-36
2023/08/31 12:40:38;;;;;;;1.95;0.73;;;19.80;98.10;;;;;;5085541;28;20490;-37
2023/08/31 12:43:04;;;;;;;1.00;0.68;;;19.80;97.90;;;;;;5084568;28;20020;-35
2023/08/31 12:45:30;;;;;;;0.65;0.60;;;19.80;97.70;;;;;;5084699;28;20040;-36
2023/08/31 12:47:59;;;;;;;1.00;0.70;;;19.80;97.60;;;;;;5085403;28;20020;-36
2023/08/31 12:50:25;;;;;;;1.48;0.40;;;19.90;98.00;;;;;;5084781;28;20538;-36
2023/08/31 12:52:51;;;;;;;0.85;0.50;;;19.90;98.20;;;;;;5084835;28;20081;-35
2023/08/31 12:55:17;;;;;;;1.40;0.88;;;20.00;98.20;;;;;;5084363;28;20028;-37
2023/08/31 12:57:43;;;;;;;1.77;0.88;;;20.10;98.20;;;;;;5085794;28;20035;-37
2023/08/31 13:00:13;;;;;;;2.10;0.77;;;20.10;97.30;;;;;;5083940;28;20135;-36
2023/08/31 13:02:40;;;;;;;0.88;0.60;;;20.20;96.60;;;;;;5085103;28;20489;-35